sensor_id;sensor_type;location;lat;lon;timestamp;P1;durP1;ratioP1;P2;durP2;ratioP2
31306;SDS011;17935;51.120;13.132;2023-06-26T00:00:29;10.98;;;8.32;;
31306;SDS011;17935;51.120;13.132;2023-06-26T00:02:55;11.77;;;8.77;;
31306;SDS011;17935;51.120;13.132;2023-06-26T00:05:21;10.10;;;8.68;;
31306;SDS011;17935;51.120;13.132;2023-06-26T00:07:47;10.25;;;8.45;;
31306;SDS011;17935;51.120;13.132;2023-06-26T00:10:12;12.23;;;8.93;;
31306;SDS011;17935;51.120;13.132;2023-06-26T00:12:38;9.98;;;8.82;;
31306;SDS011;17935;51.120;13.132;2023-06-26T00:15:04;15.73;;;8.00;;
31306;SDS011;17935;51.120;13.132;2023-06-26T00:17:32;13.43;;;9.15;;
31306;SDS011;17935;51.120;13.132;2023-06-26T00:20:02;12.40;;;9.27;;
31306;SDS011;17935;51.120;13.132;2023-06-26T00:22:30;12.30;;;9.00;;
31306;SDS011;17935;51.120;13.132;2023-06-26T00:24:56;11.10;;;7.97;;
31306;SDS011;17935;51.120;13.132;2023-06-26T00:27:21;30.65;;;9.00;;
31306;SDS011;17935;51.120;13.132;2023-06-26T00:29:47;11.90;;;8.63;;
31306;SDS011;17935;51.120;13.132;2023-06-26T00:32:13;11.05;;;7.78;;
31306;SDS011;17935;51.120;13.132;2023-06-26T00:34:39;13.02;;;9.52;;
31306;SDS011;17935;51.120;13.132;2023-06-26T00:37:05;14.73;;;9.70;;
31306;SDS011;17935;51.120;13.132;2023-06-26T00:39:31;11.40;;;8.68;;
31306;SDS011;17935;51.120;13.132;2023-06-26T00:41:58;13.45;;;8.95;;
31306;SDS011;17935;51.120;13.132;2023-06-26T00:44:24;16.05;;;8.88;;
31306;SDS011;17935;51.120;13.132;2023-06-26T00:46:50;15.65;;;8.63;;
31306;SDS011;17935;51.120;13.132;2023-06-26T00:49:16;10.07;;;8.07;;
31306;SDS011;17935;51.120;13.132;2023-06-26T00:51:42;11.65;;;8.77;;
31306;SDS011;17935;51.120;13.132;2023-06-26T00:54:09;15.52;;;8.63;;
31306;SDS011;17935;51.120;13.132;2023-06-26T00:56:35;14.25;;;9.02;;
31306;SDS011;17935;51.120;13.132;2023-06-26T00:59:01;12.18;;;8.50;;
31306;SDS011;17935;51.120;13.132;2023-06-26T01:01:27;11.70;;;7.97;;
31306;SDS011;17935;51.120;13.132;2023-06-26T01:03:53;12.85;;;8.90;;
31306;SDS011;17935;51.120;13.132;2023-06-26T01:06:20;13.82;;;9.00;;
31306;SDS011;17935;51.120;13.132;2023-06-26T01:08:47;12.52;;;8.65;;
31306;SDS011;17935;51.120;13.132;2023-06-26T01:11:13;12.50;;;8.30;;
31306;SDS011;17935;51.120;13.132;2023-06-26T01:13:40;12.95;;;8.68;;
31306;SDS011;17935;51.120;13.132;2023-06-26T01:16:08;16.45;;;9.02;;
31306;SDS011;17935;51.120;13.132;2023-06-26T01:18:34;13.90;;;8.65;;
31306;SDS011;17935;51.120;13.132;2023-06-26T01:21:01;12.52;;;9.48;;
31306;SDS011;17935;51.120;13.132;2023-06-26T01:23:29;16.65;;;8.90;;
31306;SDS011;17935;51.120;13.132;2023-06-26T01:25:59;12.27;;;9.00;;
31306;SDS011;17935;51.120;13.132;2023-06-26T01:28:27;15.68;;;9.07;;
31306;SDS011;17935;51.120;13.132;2023-06-26T01:30:53;10.23;;;8.77;;
31306;SDS011;17935;51.120;13.132;2023-06-26T01:33:19;11.50;;;8.68;;
31306;SDS011;17935;51.120;13.132;2023-06-26T01:35:45;10.45;;;8.82;;
31306;SDS011;17935;51.120;13.132;2023-06-26T01:40:38;12.90;;;9.18;;
31306;SDS011;17935;51.120;13.132;2023-06-26T01:43:05;10.63;;;8.95;;
31306;SDS011;17935;51.120;13.132;2023-06-26T01:45:32;13.43;;;9.35;;
31306;SDS011;17935;51.120;13.132;2023-06-26T01:47:58;15.50;;;9.70;;
31306;SDS011;17935;51.120;13.132;2023-06-26T01:50:26;18.27;;;9.35;;
31306;SDS011;17935;51.120;13.132;2023-06-26T01:53:13;15.55;;;9.27;;
31306;SDS011;17935;51.120;13.132;2023-06-26T01:58:07;13.82;;;9.27;;
31306;SDS011;17935;51.120;13.132;2023-06-26T02:00:33;13.27;;;9.68;;
31306;SDS011;17935;51.120;13.132;2023-06-26T02:02:59;15.15;;;10.35;;
31306;SDS011;17935;51.120;13.132;2023-06-26T02:05:25;13.90;;;9.45;;
31306;SDS011;17935;51.120;13.132;2023-06-26T02:07:51;12.85;;;8.35;;
31306;SDS011;17935;51.120;13.132;2023-06-26T02:10:17;14.85;;;9.27;;
31306;SDS011;17935;51.120;13.132;2023-06-26T02:12:43;13.85;;;9.27;;
31306;SDS011;17935;51.120;13.132;2023-06-26T02:15:09;15.18;;;9.27;;
31306;SDS011;17935;51.120;13.132;2023-06-26T02:17:35;16.45;;;9.57;;
31306;SDS011;17935;51.120;13.132;2023-06-26T02:20:01;16.30;;;9.18;;
31306;SDS011;17935;51.120;13.132;2023-06-26T02:22:27;16.13;;;9.35;;
31306;SDS011;17935;51.120;13.132;2023-06-26T02:24:53;16.48;;;9.15;;
31306;SDS011;17935;51.120;13.132;2023-06-26T02:27:19;20.38;;;10.75;;
31306;SDS011;17935;51.120;13.132;2023-06-26T02:29:45;15.48;;;9.27;;
31306;SDS011;17935;51.120;13.132;2023-06-26T02:32:11;18.92;;;9.55;;
31306;SDS011;17935;51.120;13.132;2023-06-26T02:34:37;13.68;;;8.50;;
31306;SDS011;17935;51.120;13.132;2023-06-26T02:37:03;17.60;;;9.10;;
31306;SDS011;17935;51.120;13.132;2023-06-26T02:39:31;13.55;;;9.73;;
31306;SDS011;17935;51.120;13.132;2023-06-26T02:41:57;13.90;;;9.50;;
31306;SDS011;17935;51.120;13.132;2023-06-26T02:44:23;14.02;;;9.75;;
31306;SDS011;17935;51.120;13.132;2023-06-26T02:46:49;14.63;;;9.45;;
31306;SDS011;17935;51.120;13.132;2023-06-26T02:49:15;17.88;;;9.38;;
31306;SDS011;17935;51.120;13.132;2023-06-26T02:51:40;15.02;;;9.93;;
31306;SDS011;17935;51.120;13.132;2023-06-26T02:54:06;11.38;;;8.80;;
31306;SDS011;17935;51.120;13.132;2023-06-26T02:56:32;10.73;;;8.13;;
31306;SDS011;17935;51.120;13.132;2023-06-26T02:58:58;15.20;;;9.90;;
31306;SDS011;17935;51.120;13.132;2023-06-26T03:01:24;18.70;;;9.20;;
31306;SDS011;17935;51.120;13.132;2023-06-26T03:03:51;12.75;;;9.05;;
31306;SDS011;17935;51.120;13.132;2023-06-26T03:06:17;20.65;;;9.95;;
31306;SDS011;17935;51.120;13.132;2023-06-26T03:08:43;15.32;;;9.20;;
31306;SDS011;17935;51.120;13.132;2023-06-26T03:11:09;11.05;;;8.50;;
31306;SDS011;17935;51.120;13.132;2023-06-26T03:13:35;13.30;;;8.55;;
31306;SDS011;17935;51.120;13.132;2023-06-26T03:16:02;20.98;;;8.77;;
31306;SDS011;17935;51.120;13.132;2023-06-26T03:18:28;14.00;;;8.63;;
31306;SDS011;17935;51.120;13.132;2023-06-26T03:20:55;15.52;;;8.13;;
31306;SDS011;17935;51.120;13.132;2023-06-26T03:23:21;18.63;;;8.40;;
31306;SDS011;17935;51.120;13.132;2023-06-26T03:25:47;13.35;;;8.73;;
31306;SDS011;17935;51.120;13.132;2023-06-26T03:28:13;13.45;;;8.75;;
31306;SDS011;17935;51.120;13.132;2023-06-26T03:30:39;12.82;;;7.63;;
31306;SDS011;17935;51.120;13.132;2023-06-26T03:33:05;9.73;;;7.40;;
31306;SDS011;17935;51.120;13.132;2023-06-26T03:35:31;11.80;;;8.40;;
31306;SDS011;17935;51.120;13.132;2023-06-26T03:37:57;12.60;;;8.57;;
31306;SDS011;17935;51.120;13.132;2023-06-26T03:40:23;16.55;;;8.80;;
31306;SDS011;17935;51.120;13.132;2023-06-26T03:42:49;20.48;;;8.85;;
31306;SDS011;17935;51.120;13.132;2023-06-26T03:45:15;17.42;;;8.55;;
31306;SDS011;17935;51.120;13.132;2023-06-26T03:47:41;16.33;;;8.73;;
31306;SDS011;17935;51.120;13.132;2023-06-26T03:50:07;14.82;;;8.60;;
31306;SDS011;17935;51.120;13.132;2023-06-26T03:52:33;15.98;;;8.38;;
31306;SDS011;17935;51.120;13.132;2023-06-26T03:54:59;11.88;;;6.70;;
31306;SDS011;17935;51.120;13.132;2023-06-26T03:57:25;8.30;;;6.15;;
31306;SDS011;17935;51.120;13.132;2023-06-26T03:59:51;8.70;;;5.97;;
31306;SDS011;17935;51.120;13.132;2023-06-26T04:02:18;10.95;;;5.80;;
31306;SDS011;17935;51.120;13.132;2023-06-26T04:04:44;9.68;;;5.78;;
31306;SDS011;17935;51.120;13.132;2023-06-26T04:07:10;9.35;;;5.55;;
31306;SDS011;17935;51.120;13.132;2023-06-26T04:09:36;8.98;;;5.22;;
31306;SDS011;17935;51.120;13.132;2023-06-26T04:12:02;12.90;;;4.68;;
31306;SDS011;17935;51.120;13.132;2023-06-26T04:14:28;9.48;;;4.97;;
31306;SDS011;17935;51.120;13.132;2023-06-26T04:16:53;17.17;;;5.15;;
31306;SDS011;17935;51.120;13.132;2023-06-26T04:19:20;6.68;;;4.88;;
31306;SDS011;17935;51.120;13.132;2023-06-26T04:21:46;13.50;;;5.00;;
31306;SDS011;17935;51.120;13.132;2023-06-26T04:24:12;8.05;;;4.75;;
31306;SDS011;17935;51.120;13.132;2023-06-26T04:26:38;7.63;;;4.68;;
31306;SDS011;17935;51.120;13.132;2023-06-26T04:29:06;15.20;;;5.30;;
31306;SDS011;17935;51.120;13.132;2023-06-26T04:31:31;8.63;;;4.57;;
31306;SDS011;17935;51.120;13.132;2023-06-26T04:33:57;11.23;;;4.55;;
31306;SDS011;17935;51.120;13.132;2023-06-26T04:36:24;18.42;;;5.30;;
31306;SDS011;17935;51.120;13.132;2023-06-26T04:38:53;6.22;;;4.75;;
31306;SDS011;17935;51.120;13.132;2023-06-26T04:41:19;7.30;;;4.25;;
31306;SDS011;17935;51.120;13.132;2023-06-26T04:43:45;7.30;;;4.80;;
31306;SDS011;17935;51.120;13.132;2023-06-26T04:46:11;7.38;;;4.50;;
31306;SDS011;17935;51.120;13.132;2023-06-26T04:48:36;9.05;;;5.22;;
31306;SDS011;17935;51.120;13.132;2023-06-26T04:51:02;7.85;;;4.22;;
31306;SDS011;17935;51.120;13.132;2023-06-26T04:53:28;15.40;;;5.03;;
31306;SDS011;17935;51.120;13.132;2023-06-26T04:55:54;6.75;;;3.80;;
31306;SDS011;17935;51.120;13.132;2023-06-26T04:58:20;5.25;;;3.95;;
31306;SDS011;17935;51.120;13.132;2023-06-26T05:00:46;6.63;;;4.20;;
31306;SDS011;17935;51.120;13.132;2023-06-26T05:03:13;7.68;;;4.28;;
31306;SDS011;17935;51.120;13.132;2023-06-26T05:05:39;7.05;;;4.15;;
31306;SDS011;17935;51.120;13.132;2023-06-26T05:10:40;5.40;;;3.80;;
31306;SDS011;17935;51.120;13.132;2023-06-26T05:13:06;5.97;;;3.75;;
31306;SDS011;17935;51.120;13.132;2023-06-26T05:15:32;7.65;;;3.92;;
31306;SDS011;17935;51.120;13.132;2023-06-26T05:17:58;10.65;;;4.10;;
31306;SDS011;17935;51.120;13.132;2023-06-26T05:20:24;10.50;;;4.00;;
31306;SDS011;17935;51.120;13.132;2023-06-26T05:22:50;11.73;;;4.03;;
31306;SDS011;17935;51.120;13.132;2023-06-26T05:25:16;7.60;;;4.40;;
31306;SDS011;17935;51.120;13.132;2023-06-26T05:27:46;3.97;;;3.67;;
31306;SDS011;17935;51.120;13.132;2023-06-26T05:30:12;6.07;;;3.75;;
31306;SDS011;17935;51.120;13.132;2023-06-26T05:32:38;7.32;;;3.85;;
31306;SDS011;17935;51.120;13.132;2023-06-26T05:35:05;4.60;;;3.70;;
31306;SDS011;17935;51.120;13.132;2023-06-26T05:37:32;4.00;;;3.60;;
31306;SDS011;17935;51.120;13.132;2023-06-26T05:39:59;5.22;;;3.63;;
31306;SDS011;17935;51.120;13.132;2023-06-26T05:42:26;4.55;;;3.65;;
31306;SDS011;17935;51.120;13.132;2023-06-26T05:44:52;8.93;;;3.88;;
31306;SDS011;17935;51.120;13.132;2023-06-26T05:47:18;7.97;;;3.90;;
31306;SDS011;17935;51.120;13.132;2023-06-26T05:49:44;4.28;;;2.90;;
31306;SDS011;17935;51.120;13.132;2023-06-26T05:52:11;5.07;;;3.40;;
31306;SDS011;17935;51.120;13.132;2023-06-26T05:54:37;4.50;;;3.20;;
31306;SDS011;17935;51.120;13.132;2023-06-26T05:57:03;4.63;;;3.63;;
31306;SDS011;17935;51.120;13.132;2023-06-26T05:59:31;5.53;;;3.53;;
31306;SDS011;17935;51.120;13.132;2023-06-26T06:01:57;7.22;;;3.40;;
31306;SDS011;17935;51.120;13.132;2023-06-26T06:04:23;6.50;;;3.55;;
31306;SDS011;17935;51.120;13.132;2023-06-26T06:06:49;3.35;;;3.05;;
31306;SDS011;17935;51.120;13.132;2023-06-26T06:09:15;4.00;;;3.60;;
31306;SDS011;17935;51.120;13.132;2023-06-26T06:11:41;4.45;;;3.22;;
31306;SDS011;17935;51.120;13.132;2023-06-26T06:14:07;4.88;;;3.55;;
31306;SDS011;17935;51.120;13.132;2023-06-26T06:16:32;3.78;;;3.20;;
31306;SDS011;17935;51.120;13.132;2023-06-26T06:18:58;3.97;;;3.15;;
31306;SDS011;17935;51.120;13.132;2023-06-26T06:21:24;3.85;;;3.55;;
31306;SDS011;17935;51.120;13.132;2023-06-26T06:23:50;3.70;;;2.83;;
31306;SDS011;17935;51.120;13.132;2023-06-26T06:26:16;3.67;;;3.20;;
31306;SDS011;17935;51.120;13.132;2023-06-26T06:28:42;3.03;;;2.72;;
31306;SDS011;17935;51.120;13.132;2023-06-26T06:31:08;4.72;;;2.80;;
31306;SDS011;17935;51.120;13.132;2023-06-26T06:33:34;6.70;;;3.70;;
31306;SDS011;17935;51.120;13.132;2023-06-26T06:36:00;3.45;;;2.47;;
31306;SDS011;17935;51.120;13.132;2023-06-26T06:38:26;3.13;;;2.83;;
31306;SDS011;17935;51.120;13.132;2023-06-26T06:40:52;3.22;;;3.03;;
31306;SDS011;17935;51.120;13.132;2023-06-26T06:43:18;2.60;;;2.40;;
31306;SDS011;17935;51.120;13.132;2023-06-26T06:45:44;3.55;;;3.08;;
31306;SDS011;17935;51.120;13.132;2023-06-26T06:48:10;4.60;;;2.70;;
31306;SDS011;17935;51.120;13.132;2023-06-26T06:50:36;3.35;;;3.05;;
31306;SDS011;17935;51.120;13.132;2023-06-26T06:53:02;2.70;;;2.50;;
31306;SDS011;17935;51.120;13.132;2023-06-26T06:55:28;2.92;;;2.72;;
31306;SDS011;17935;51.120;13.132;2023-06-26T06:57:54;3.17;;;2.70;;
31306;SDS011;17935;51.120;13.132;2023-06-26T07:00:20;2.75;;;2.55;;
31306;SDS011;17935;51.120;13.132;2023-06-26T07:02:46;4.05;;;2.85;;
31306;SDS011;17935;51.120;13.132;2023-06-26T07:05:12;3.50;;;3.20;;
31306;SDS011;17935;51.120;13.132;2023-06-26T07:07:38;2.78;;;2.58;;
31306;SDS011;17935;51.120;13.132;2023-06-26T07:10:05;5.80;;;3.03;;
31306;SDS011;17935;51.120;13.132;2023-06-26T07:12:33;3.00;;;2.70;;
31306;SDS011;17935;51.120;13.132;2023-06-26T07:14:59;3.53;;;3.22;;
31306;SDS011;17935;51.120;13.132;2023-06-26T07:17:26;4.82;;;3.20;;
31306;SDS011;17935;51.120;13.132;2023-06-26T07:19:52;3.05;;;2.67;;
31306;SDS011;17935;51.120;13.132;2023-06-26T07:22:18;3.20;;;2.92;;
31306;SDS011;17935;51.120;13.132;2023-06-26T07:24:45;3.33;;;3.00;;
31306;SDS011;17935;51.120;13.132;2023-06-26T07:27:12;3.92;;;2.90;;
31306;SDS011;17935;51.120;13.132;2023-06-26T07:29:38;4.55;;;2.80;;
31306;SDS011;17935;51.120;13.132;2023-06-26T07:32:04;3.40;;;3.10;;
31306;SDS011;17935;51.120;13.132;2023-06-26T07:34:30;3.13;;;2.80;;
31306;SDS011;17935;51.120;13.132;2023-06-26T07:36:56;3.80;;;3.40;;
31306;SDS011;17935;51.120;13.132;2023-06-26T07:39:22;4.40;;;2.78;;
31306;SDS011;17935;51.120;13.132;2023-06-26T07:41:48;4.38;;;3.00;;
31306;SDS011;17935;51.120;13.132;2023-06-26T07:44:14;5.18;;;3.80;;
31306;SDS011;17935;51.120;13.132;2023-06-26T07:46:40;3.30;;;3.00;;
31306;SDS011;17935;51.120;13.132;2023-06-26T07:49:06;3.10;;;2.90;;
31306;SDS011;17935;51.120;13.132;2023-06-26T07:51:32;7.18;;;3.45;;
31306;SDS011;17935;51.120;13.132;2023-06-26T07:53:58;3.78;;;2.80;;
31306;SDS011;17935;51.120;13.132;2023-06-26T07:56:24;3.17;;;2.97;;
31306;SDS011;17935;51.120;13.132;2023-06-26T07:58:50;2.97;;;2.78;;
31306;SDS011;17935;51.120;13.132;2023-06-26T08:01:17;3.75;;;2.92;;
31306;SDS011;17935;51.120;13.132;2023-06-26T08:03:43;3.20;;;2.90;;
31306;SDS011;17935;51.120;13.132;2023-06-26T08:06:09;4.93;;;3.28;;
31306;SDS011;17935;51.120;13.132;2023-06-26T08:08:35;3.13;;;2.80;;
31306;SDS011;17935;51.120;13.132;2023-06-26T08:11:01;3.35;;;3.05;;
31306;SDS011;17935;51.120;13.132;2023-06-26T08:13:27;3.55;;;3.25;;
31306;SDS011;17935;51.120;13.132;2023-06-26T08:15:53;3.35;;;3.05;;
31306;SDS011;17935;51.120;13.132;2023-06-26T08:18:19;3.35;;;2.90;;
31306;SDS011;17935;51.120;13.132;2023-06-26T08:20:46;3.50;;;3.20;;
31306;SDS011;17935;51.120;13.132;2023-06-26T08:23:11;3.45;;;2.70;;
31306;SDS011;17935;51.120;13.132;2023-06-26T08:25:37;6.95;;;3.40;;
31306;SDS011;17935;51.120;13.132;2023-06-26T08:28:03;7.88;;;3.40;;
31306;SDS011;17935;51.120;13.132;2023-06-26T08:30:29;3.22;;;2.92;;
31306;SDS011;17935;51.120;13.132;2023-06-26T08:32:55;3.10;;;2.85;;
31306;SDS011;17935;51.120;13.132;2023-06-26T08:35:21;3.17;;;2.88;;
31306;SDS011;17935;51.120;13.132;2023-06-26T08:37:47;3.30;;;3.10;;
31306;SDS011;17935;51.120;13.132;2023-06-26T08:40:16;9.88;;;3.42;;
31306;SDS011;17935;51.120;13.132;2023-06-26T08:42:43;6.20;;;2.97;;
31306;SDS011;17935;51.120;13.132;2023-06-26T08:45:09;4.45;;;3.00;;
31306;SDS011;17935;51.120;13.132;2023-06-26T08:47:35;3.78;;;3.45;;
31306;SDS011;17935;51.120;13.132;2023-06-26T08:50:08;5.53;;;3.22;;
31306;SDS011;17935;51.120;13.132;2023-06-26T08:55:08;4.20;;;3.53;;
31306;SDS011;17935;51.120;13.132;2023-06-26T08:57:35;3.75;;;3.45;;
31306;SDS011;17935;51.120;13.132;2023-06-26T09:00:02;4.50;;;3.20;;
31306;SDS011;17935;51.120;13.132;2023-06-26T09:02:29;3.42;;;3.20;;
31306;SDS011;17935;51.120;13.132;2023-06-26T09:04:55;3.60;;;3.15;;
31306;SDS011;17935;51.120;13.132;2023-06-26T09:07:21;3.78;;;3.47;;
31306;SDS011;17935;51.120;13.132;2023-06-26T09:09:47;3.38;;;3.08;;
31306;SDS011;17935;51.120;13.132;2023-06-26T09:12:13;3.95;;;3.22;;
31306;SDS011;17935;51.120;13.132;2023-06-26T09:14:39;3.63;;;3.20;;
31306;SDS011;17935;51.120;13.132;2023-06-26T09:17:05;3.80;;;3.35;;
31306;SDS011;17935;51.120;13.132;2023-06-26T09:19:31;3.72;;;3.45;;
31306;SDS011;17935;51.120;13.132;2023-06-26T09:21:57;3.25;;;3.05;;
31306;SDS011;17935;51.120;13.132;2023-06-26T09:24:23;3.33;;;2.97;;
31306;SDS011;17935;51.120;13.132;2023-06-26T09:26:50;3.83;;;3.33;;
31306;SDS011;17935;51.120;13.132;2023-06-26T09:29:16;4.13;;;3.42;;
31306;SDS011;17935;51.120;13.132;2023-06-26T09:31:43;3.85;;;3.30;;
31306;SDS011;17935;51.120;13.132;2023-06-26T09:34:09;4.03;;;3.72;;
31306;SDS011;17935;51.120;13.132;2023-06-26T09:36:35;6.05;;;3.25;;
31306;SDS011;17935;51.120;13.132;2023-06-26T09:39:02;5.35;;;3.20;;
31306;SDS011;17935;51.120;13.132;2023-06-26T09:41:35;3.67;;;3.28;;
31306;SDS011;17935;51.120;13.132;2023-06-26T09:44:02;8.18;;;2.90;;
31306;SDS011;17935;51.120;13.132;2023-06-26T09:46:29;6.07;;;3.13;;
31306;SDS011;17935;51.120;13.132;2023-06-26T09:51:24;7.45;;;3.00;;
31306;SDS011;17935;51.120;13.132;2023-06-26T09:53:50;7.47;;;3.05;;
31306;SDS011;17935;51.120;13.132;2023-06-26T09:56:16;3.50;;;3.03;;
31306;SDS011;17935;51.120;13.132;2023-06-26T09:58:43;15.10;;;2.90;;
31306;SDS011;17935;51.120;13.132;2023-06-26T10:01:09;5.45;;;3.40;;
31306;SDS011;17935;51.120;13.132;2023-06-26T10:03:35;4.38;;;3.08;;
31306;SDS011;17935;51.120;13.132;2023-06-26T10:06:02;3.00;;;2.80;;
31306;SDS011;17935;51.120;13.132;2023-06-26T10:08:28;4.10;;;3.10;;
31306;SDS011;17935;51.120;13.132;2023-06-26T10:10:55;3.00;;;2.80;;
31306;SDS011;17935;51.120;13.132;2023-06-26T10:13:22;4.05;;;2.70;;
31306;SDS011;17935;51.120;13.132;2023-06-26T10:15:50;3.50;;;3.20;;
31306;SDS011;17935;51.120;13.132;2023-06-26T10:18:17;3.45;;;3.13;;
31306;SDS011;17935;51.120;13.132;2023-06-26T10:20:45;3.63;;;3.20;;
31306;SDS011;17935;51.120;13.132;2023-06-26T10:23:12;3.92;;;3.47;;
31306;SDS011;17935;51.120;13.132;2023-06-26T10:25:40;3.83;;;3.40;;
31306;SDS011;17935;51.120;13.132;2023-06-26T10:28:07;5.63;;;3.58;;
31306;SDS011;17935;51.120;13.132;2023-06-26T10:30:36;5.10;;;3.80;;
31306;SDS011;17935;51.120;13.132;2023-06-26T10:33:02;5.00;;;3.72;;
31306;SDS011;17935;51.120;13.132;2023-06-26T10:35:29;4.47;;;4.07;;
31306;SDS011;17935;51.120;13.132;2023-06-26T10:38:00;5.50;;;3.75;;
31306;SDS011;17935;51.120;13.132;2023-06-26T10:40:28;5.88;;;4.20;;
31306;SDS011;17935;51.120;13.132;2023-06-26T10:43:06;7.32;;;4.15;;
31306;SDS011;17935;51.120;13.132;2023-06-26T10:45:36;5.25;;;4.13;;
31306;SDS011;17935;51.120;13.132;2023-06-26T10:48:07;5.32;;;4.78;;
31306;SDS011;17935;51.120;13.132;2023-06-26T10:50:32;4.63;;;4.22;;
31306;SDS011;17935;51.120;13.132;2023-06-26T10:55:57;5.93;;;4.60;;
31306;SDS011;17935;51.120;13.132;2023-06-26T11:01:20;5.68;;;4.43;;
31306;SDS011;17935;51.120;13.132;2023-06-26T11:06:17;4.72;;;4.30;;
31306;SDS011;17935;51.120;13.132;2023-06-26T11:08:49;5.45;;;4.93;;
31306;SDS011;17935;51.120;13.132;2023-06-26T11:11:19;5.25;;;4.35;;
31306;SDS011;17935;51.120;13.132;2023-06-26T11:13:46;4.82;;;4.43;;
31306;SDS011;17935;51.120;13.132;2023-06-26T11:16:12;4.97;;;4.57;;
31306;SDS011;17935;51.120;13.132;2023-06-26T11:18:39;6.88;;;4.97;;
31306;SDS011;17935;51.120;13.132;2023-06-26T11:21:05;5.68;;;5.13;;
31306;SDS011;17935;51.120;13.132;2023-06-26T11:23:32;5.97;;;4.90;;
31306;SDS011;17935;51.120;13.132;2023-06-26T11:26:22;5.53;;;4.95;;
31306;SDS011;17935;51.120;13.132;2023-06-26T11:28:47;5.57;;;4.88;;
31306;SDS011;17935;51.120;13.132;2023-06-26T11:31:27;7.25;;;5.03;;
31306;SDS011;17935;51.120;13.132;2023-06-26T11:33:55;5.30;;;4.80;;
31306;SDS011;17935;51.120;13.132;2023-06-26T11:36:24;6.40;;;4.68;;
31306;SDS011;17935;51.120;13.132;2023-06-26T11:38:54;4.72;;;4.28;;
31306;SDS011;17935;51.120;13.132;2023-06-26T11:41:30;5.45;;;4.90;;
31306;SDS011;17935;51.120;13.132;2023-06-26T11:44:00;5.32;;;4.82;;
31306;SDS011;17935;51.120;13.132;2023-06-26T11:46:26;7.72;;;5.10;;
31306;SDS011;17935;51.120;13.132;2023-06-26T11:48:53;5.55;;;4.85;;
31306;SDS011;17935;51.120;13.132;2023-06-26T11:51:19;5.10;;;4.60;;
31306;SDS011;17935;51.120;13.132;2023-06-26T11:53:45;6.22;;;5.03;;
31306;SDS011;17935;51.120;13.132;2023-06-26T11:56:11;7.80;;;4.50;;
31306;SDS011;17935;51.120;13.132;2023-06-26T11:59:12;7.18;;;4.80;;
31306;SDS011;17935;51.120;13.132;2023-06-26T12:01:35;4.40;;;4.00;;
31306;SDS011;17935;51.120;13.132;2023-06-26T12:04:06;8.88;;;4.15;;
31306;SDS011;17935;51.120;13.132;2023-06-26T12:06:34;7.35;;;4.95;;
31306;SDS011;17935;51.120;13.132;2023-06-26T12:09:02;4.60;;;4.20;;
31306;SDS011;17935;51.120;13.132;2023-06-26T12:11:30;12.07;;;5.15;;
31306;SDS011;17935;51.120;13.132;2023-06-26T12:13:56;6.75;;;4.43;;
31306;SDS011;17935;51.120;13.132;2023-06-26T12:16:22;5.25;;;4.85;;
31306;SDS011;17935;51.120;13.132;2023-06-26T12:18:48;7.50;;;4.82;;
31306;SDS011;17935;51.120;13.132;2023-06-26T12:21:33;7.32;;;4.70;;
31306;SDS011;17935;51.120;13.132;2023-06-26T12:24:12;5.32;;;4.82;;
31306;SDS011;17935;51.120;13.132;2023-06-26T12:26:41;5.85;;;4.53;;
31306;SDS011;17935;51.120;13.132;2023-06-26T12:29:09;9.38;;;4.78;;
31306;SDS011;17935;51.120;13.132;2023-06-26T12:31:43;5.00;;;4.50;;
31306;SDS011;17935;51.120;13.132;2023-06-26T12:34:18;5.53;;;4.97;;
31306;SDS011;17935;51.120;13.132;2023-06-26T12:36:45;5.30;;;4.80;;
31306;SDS011;17935;51.120;13.132;2023-06-26T12:39:18;5.93;;;5.40;;
31306;SDS011;17935;51.120;13.132;2023-06-26T12:41:49;4.93;;;4.50;;
31306;SDS011;17935;51.120;13.132;2023-06-26T12:44:18;6.23;;;4.77;;
31306;SDS011;17935;51.120;13.132;2023-06-26T12:46:48;5.53;;;4.65;;
31306;SDS011;17935;51.120;13.132;2023-06-26T12:49:15;6.93;;;5.25;;
31306;SDS011;17935;51.120;13.132;2023-06-26T12:51:42;5.75;;;5.15;;
31306;SDS011;17935;51.120;13.132;2023-06-26T12:54:08;6.22;;;5.10;;
31306;SDS011;17935;51.120;13.132;2023-06-26T12:56:35;5.70;;;5.20;;
31306;SDS011;17935;51.120;13.132;2023-06-26T12:59:01;5.75;;;5.25;;
31306;SDS011;17935;51.120;13.132;2023-06-26T13:01:27;5.57;;;4.72;;
31306;SDS011;17935;51.120;13.132;2023-06-26T13:03:53;5.75;;;5.15;;
31306;SDS011;17935;51.120;13.132;2023-06-26T13:06:19;9.65;;;5.15;;
31306;SDS011;17935;51.120;13.132;2023-06-26T13:08:44;6.53;;;5.57;;
31306;SDS011;17935;51.120;13.132;2023-06-26T13:11:10;5.70;;;4.82;;
31306;SDS011;17935;51.120;13.132;2023-06-26T13:13:35;7.65;;;5.22;;
31306;SDS011;17935;51.120;13.132;2023-06-26T13:16:01;6.18;;;5.57;;
31306;SDS011;17935;51.120;13.132;2023-06-26T13:18:27;7.20;;;5.32;;
31306;SDS011;17935;51.120;13.132;2023-06-26T13:20:52;8.90;;;5.20;;
31306;SDS011;17935;51.120;13.132;2023-06-26T13:23:18;7.32;;;5.15;;
31306;SDS011;17935;51.120;13.132;2023-06-26T13:25:44;8.60;;;5.70;;
31306;SDS011;17935;51.120;13.132;2023-06-26T13:28:10;9.70;;;5.60;;
31306;SDS011;17935;51.120;13.132;2023-06-26T13:30:35;7.35;;;5.22;;
31306;SDS011;17935;51.120;13.132;2023-06-26T13:33:01;5.63;;;5.13;;
31306;SDS011;17935;51.120;13.132;2023-06-26T13:35:26;8.27;;;5.18;;
31306;SDS011;17935;51.120;13.132;2023-06-26T13:37:53;5.40;;;4.90;;
31306;SDS011;17935;51.120;13.132;2023-06-26T13:40:18;5.38;;;4.88;;
31306;SDS011;17935;51.120;13.132;2023-06-26T13:42:44;5.57;;;5.07;;
31306;SDS011;17935;51.120;13.132;2023-06-26T13:45:09;4.82;;;4.35;;
31306;SDS011;17935;51.120;13.132;2023-06-26T13:47:35;7.10;;;4.90;;
31306;SDS011;17935;51.120;13.132;2023-06-26T13:50:02;7.10;;;5.57;;
31306;SDS011;17935;51.120;13.132;2023-06-26T13:52:29;6.95;;;5.05;;
31306;SDS011;17935;51.120;13.132;2023-06-26T13:54:54;6.47;;;5.32;;
31306;SDS011;17935;51.120;13.132;2023-06-26T13:57:20;6.60;;;5.13;;
31306;SDS011;17935;51.120;13.132;2023-06-26T13:59:47;7.55;;;5.88;;
31306;SDS011;17935;51.120;13.132;2023-06-26T14:02:13;5.78;;;5.18;;
31306;SDS011;17935;51.120;13.132;2023-06-26T14:04:38;5.60;;;4.90;;
31306;SDS011;17935;51.120;13.132;2023-06-26T14:07:04;6.63;;;4.93;;
31306;SDS011;17935;51.120;13.132;2023-06-26T14:09:30;6.10;;;5.05;;
31306;SDS011;17935;51.120;13.132;2023-06-26T14:11:56;11.48;;;5.68;;
31306;SDS011;17935;51.120;13.132;2023-06-26T14:14:21;6.30;;;5.68;;
31306;SDS011;17935;51.120;13.132;2023-06-26T14:16:47;5.25;;;4.75;;
31306;SDS011;17935;51.120;13.132;2023-06-26T14:19:13;5.35;;;4.85;;
31306;SDS011;17935;51.120;13.132;2023-06-26T14:21:40;5.80;;;5.25;;
31306;SDS011;17935;51.120;13.132;2023-06-26T14:24:06;5.75;;;5.13;;
31306;SDS011;17935;51.120;13.132;2023-06-26T14:26:32;5.72;;;5.13;;
31306;SDS011;17935;51.120;13.132;2023-06-26T14:28:58;7.28;;;5.35;;
31306;SDS011;17935;51.120;13.132;2023-06-26T14:31:24;7.03;;;4.95;;
31306;SDS011;17935;51.120;13.132;2023-06-26T14:33:50;5.68;;;5.15;;
31306;SDS011;17935;51.120;13.132;2023-06-26T14:36:15;6.78;;;5.32;;
31306;SDS011;17935;51.120;13.132;2023-06-26T14:38:41;5.18;;;4.68;;
31306;SDS011;17935;51.120;13.132;2023-06-26T14:41:06;6.82;;;6.18;;
31306;SDS011;17935;51.120;13.132;2023-06-26T14:43:32;5.90;;;5.30;;
31306;SDS011;17935;51.120;13.132;2023-06-26T14:45:57;5.18;;;4.53;;
31306;SDS011;17935;51.120;13.132;2023-06-26T14:48:23;6.18;;;5.05;;